createdAt,value
2022-11-25T00:00:34.629Z,2.2
2022-11-25T00:03:53.520Z,2.1
2022-11-25T00:06:42.768Z,2.1
2022-11-25T00:09:30.140Z,2
2022-11-25T00:12:17.343Z,1.9
2022-11-25T00:15:04.640Z,1.9
2022-11-25T00:17:52.636Z,1.9
2022-11-25T00:20:39.902Z,1.9
2022-11-25T00:23:31.975Z,2
2022-11-25T00:26:21.888Z,2
2022-11-25T00:29:10.515Z,2.1
2022-11-25T00:31:59.242Z,2.1
2022-11-25T00:34:46.598Z,2.2
2022-11-25T00:37:33.899Z,2.2
2022-11-25T00:40:21.356Z,2.2
2022-11-25T00:43:08.648Z,2.2
2022-11-25T00:46:27.850Z,2.3
2022-11-25T00:49:15.339Z,2.3
2022-11-25T00:52:02.624Z,2.3
2022-11-25T00:54:50.947Z,2.2
2022-11-25T00:57:38.957Z,2.2
2022-11-25T01:00:26.902Z,2.2
2022-11-25T01:03:14.216Z,2.2
2022-11-25T01:06:01.589Z,2.1
2022-11-25T01:08:49.794Z,2.1
2022-11-25T01:11:37.176Z,2
2022-11-25T01:14:25.115Z,2
2022-11-25T01:17:12.650Z,1.9
2022-11-25T01:19:59.980Z,1.8
2022-11-25T01:22:48.331Z,1.8
2022-11-25T01:25:38.107Z,1.8
2022-11-25T01:28:26.181Z,1.8
2022-11-25T01:31:13.629Z,1.8
2022-11-25T01:34:03.549Z,1.8
2022-11-25T01:36:53.955Z,1.7
2022-11-25T01:39:41.339Z,1.6
2022-11-25T01:42:28.670Z,1.6
2022-11-25T01:45:16.401Z,1.6
2022-11-25T01:48:21.929Z,1.6
2022-11-25T01:51:14.092Z,1.6
2022-11-25T01:54:07.129Z,1.5
2022-11-25T01:56:57.513Z,1.5
2022-11-25T01:59:50.516Z,1.4
2022-11-25T02:02:41.811Z,1.4
2022-11-25T02:05:33.740Z,1.4
2022-11-25T02:08:29.492Z,1.4
2022-11-25T02:11:18.656Z,1.4
2022-11-25T02:14:08.629Z,1.5
2022-11-25T02:16:59.537Z,1.6
2022-11-25T02:19:47.411Z,1.6
2022-11-25T02:22:44.062Z,1.6
2022-11-25T02:25:41.286Z,1.6
2022-11-25T02:28:30.163Z,1.6
2022-11-25T02:31:18.597Z,1.6
2022-11-25T02:34:07.119Z,1.7
2022-11-25T02:36:55.137Z,1.7
2022-11-25T02:39:44.397Z,1.7
2022-11-25T02:42:35.040Z,1.7
2022-11-25T02:45:22.588Z,1.7
2022-11-25T02:48:23.940Z,1.7
2022-11-25T02:51:24.071Z,1.7
2022-11-25T02:54:15.502Z,1.7
2022-11-25T02:57:03.288Z,1.6
2022-11-25T02:59:50.653Z,1.6
2022-11-25T03:02:38.126Z,1.6
2022-11-25T03:05:26.025Z,1.5
2022-11-25T03:08:13.728Z,1.5
2022-11-25T03:11:01.567Z,1.5
2022-11-25T03:13:48.988Z,1.5
2022-11-25T03:16:36.434Z,1.5
2022-11-25T03:19:24.099Z,1.5
2022-11-25T03:22:11.639Z,1.6
2022-11-25T03:24:59.423Z,1.6
2022-11-25T03:27:47.333Z,1.6
2022-11-25T03:30:35.066Z,1.6
2022-11-25T03:33:22.780Z,1.6
2022-11-25T03:36:10.118Z,1.6
2022-11-25T03:38:57.793Z,1.7
2022-11-25T03:41:45.628Z,1.6
2022-11-25T03:44:33.459Z,1.7
2022-11-25T03:47:21.014Z,1.7
2022-11-25T03:50:08.771Z,1.7
2022-11-25T03:52:58.859Z,1.7
2022-11-25T03:55:46.604Z,1.7
2022-11-25T03:58:33.992Z,1.6
2022-11-25T04:01:21.472Z,1.6
2022-11-25T04:04:08.828Z,1.6
2022-11-25T04:06:56.689Z,1.6
2022-11-25T04:09:45.125Z,1.6
2022-11-25T04:12:32.656Z,1.6
2022-11-25T04:15:36.964Z,1.6
2022-11-25T04:18:29.664Z,1.6
2022-11-25T04:21:17.081Z,1.6
2022-11-25T04:24:04.399Z,1.5
2022-11-25T04:26:52.852Z,1.5
2022-11-25T04:29:40.870Z,1.4
2022-11-25T04:32:28.176Z,1.4
2022-11-25T04:35:15.558Z,1.4
2022-11-25T04:38:03.012Z,1.4
2022-11-25T04:40:50.306Z,1.3
2022-11-25T04:43:37.685Z,1.3
2022-11-25T04:46:25.150Z,1.3
2022-11-25T04:49:19.911Z,1.2
2022-11-25T04:52:07.278Z,1.2
2022-11-25T04:54:54.650Z,1.2
2022-11-25T04:57:42.218Z,1.2
2022-11-25T05:00:29.537Z,1.3
2022-11-25T05:03:17.164Z,1.3
2022-11-25T05:06:04.528Z,1.3
2022-11-25T05:08:53.281Z,1.2
2022-11-25T05:11:40.493Z,1.3
2022-11-25T05:14:27.968Z,1.3
2022-11-25T05:17:15.464Z,1.3
2022-11-25T05:20:05.340Z,1.3
2022-11-25T05:22:54.100Z,1.3
2022-11-25T05:25:41.393Z,1.3
2022-11-25T05:28:28.672Z,1.3
2022-11-25T05:31:17.307Z,1.3
2022-11-25T05:34:04.665Z,1.3
2022-11-25T05:36:52.093Z,1.4
2022-11-25T05:39:39.402Z,1.4
2022-11-25T05:42:26.791Z,1.4
2022-11-25T05:45:14.578Z,1.4
2022-11-25T05:48:02.092Z,1.5
2022-11-25T05:50:49.501Z,1.5
2022-11-25T05:53:36.877Z,1.5
2022-11-25T05:56:24.204Z,1.5
2022-11-25T05:59:11.664Z,1.5
2022-11-25T06:01:59.439Z,1.5
2022-11-25T06:04:47.587Z,1.5
2022-11-25T06:07:34.913Z,1.5
2022-11-25T06:10:22.469Z,1.5
2022-11-25T06:13:09.917Z,1.5
2022-11-25T06:15:57.854Z,1.5
2022-11-25T06:18:51.418Z,1.5
2022-11-25T06:21:39.183Z,1.5
2022-11-25T06:24:26.629Z,1.5
2022-11-25T06:27:14.815Z,1.5
2022-11-25T06:30:02.483Z,1.5
2022-11-25T06:32:52.651Z,1.5
2022-11-25T06:35:40.259Z,1.5
2022-11-25T06:38:27.640Z,1.5
2022-11-25T06:41:15.054Z,1.6
2022-11-25T06:44:03.251Z,1.6
2022-11-25T06:46:50.795Z,1.6
2022-11-25T06:49:38.222Z,1.6
2022-11-25T06:52:25.540Z,1.5
2022-11-25T06:55:14.917Z,1.5
2022-11-25T07:00:55.668Z,1.6
2022-11-25T07:03:48.125Z,1.6
2022-11-25T07:06:38.803Z,1.6
2022-11-25T07:09:26.135Z,1.7
2022-11-25T07:12:13.698Z,1.7
2022-11-25T07:15:01.360Z,1.6
2022-11-25T07:17:49.518Z,1.6
2022-11-25T07:20:36.827Z,1.6
2022-11-25T07:23:24.440Z,1.6
2022-11-25T07:26:12.971Z,1.7
2022-11-25T07:29:02.723Z,1.7
2022-11-25T07:31:54.107Z,1.8
2022-11-25T07:34:42.131Z,1.7
2022-11-25T07:37:29.466Z,1.7
2022-11-25T07:40:16.892Z,1.7
2022-11-25T07:43:05.637Z,1.7
2022-11-25T07:45:53.046Z,1.7
2022-11-25T07:48:40.734Z,1.6
2022-11-25T07:51:28.865Z,1.6
2022-11-25T07:54:18.896Z,1.6
2022-11-25T07:57:07.333Z,1.7
2022-11-25T07:59:54.633Z,1.7
2022-11-25T08:02:42.172Z,1.8
2022-11-25T08:05:29.772Z,1.8
2022-11-25T08:08:18.219Z,1.8
2022-11-25T08:11:05.653Z,1.8
2022-11-25T08:13:54.768Z,1.8
2022-11-25T08:16:44.247Z,1.8
2022-11-25T08:19:32.449Z,1.8
2022-11-25T08:22:21.053Z,1.8
2022-11-25T08:25:08.457Z,1.8
2022-11-25T08:27:55.945Z,1.9
2022-11-25T08:30:45.490Z,1.9
2022-11-25T08:33:32.888Z,1.9
2022-11-25T08:36:20.638Z,2
2022-11-25T08:39:28.857Z,2
2022-11-25T08:42:24.163Z,2
2022-11-25T08:45:12.193Z,2
2022-11-25T08:47:59.997Z,2.1
2022-11-25T08:50:47.556Z,2.2
2022-11-25T08:53:38.195Z,2.1
2022-11-25T08:56:26.965Z,2.1
2022-11-25T08:59:14.456Z,2
2022-11-25T09:02:01.798Z,2.1
2022-11-25T09:04:49.889Z,2.1
2022-11-25T09:07:37.249Z,2.1
2022-11-25T09:10:24.889Z,2.1
2022-11-25T09:13:12.372Z,2.2
2022-11-25T09:16:00.650Z,2.2
2022-11-25T09:18:53.994Z,2.2
2022-11-25T09:21:44.701Z,2.2
2022-11-25T09:24:31.973Z,2.2
2022-11-25T09:27:20.130Z,2.3
2022-11-25T09:30:07.584Z,2.4
2022-11-25T09:32:56.057Z,2.4
2022-11-25T09:35:44.633Z,2.4
2022-11-25T09:38:34.153Z,2.4
2022-11-25T09:41:22.369Z,2.4
2022-11-25T09:44:55.642Z,2.4
2022-11-25T09:48:27.522Z,2.4
2022-11-25T09:51:25.925Z,2.4
2022-11-25T09:54:22.979Z,2.4
2022-11-25T09:57:14.811Z,2.4
2022-11-25T10:00:09.009Z,2.3
2022-11-25T10:03:00.303Z,2.3
2022-11-25T10:05:54.861Z,2.3
2022-11-25T10:08:49.062Z,2.3
2022-11-25T10:11:40.345Z,2.3
2022-11-25T10:14:36.142Z,2.4
2022-11-25T10:17:29.866Z,2.4
2022-11-25T10:20:23.626Z,2.5
2022-11-25T10:23:15.534Z,2.5
2022-11-25T10:26:08.769Z,2.6
2022-11-25T10:28:59.380Z,2.6
2022-11-25T10:32:06.902Z,2.6
2022-11-25T10:35:07.878Z,2.6
2022-11-25T10:38:06.303Z,2.7
2022-11-25T10:41:00.011Z,2.7
2022-11-25T10:43:50.008Z,2.7
2022-11-25T10:47:11.116Z,2.7
2022-11-25T10:50:17.146Z,2.7
2022-11-25T10:53:13.474Z,2.8
2022-11-25T10:56:05.560Z,2.8
2022-11-25T10:58:57.578Z,2.8
2022-11-25T11:01:59.948Z,2.9
2022-11-25T11:05:08.608Z,2.9
2022-11-25T11:08:07.491Z,3
2022-11-25T11:11:02.826Z,3
2022-11-25T11:14:00.388Z,3.1
2022-11-25T11:17:05.636Z,3
2022-11-25T11:20:11.354Z,3
2022-11-25T11:23:08.711Z,3.1
2022-11-25T11:25:59.232Z,3.1
2022-11-25T11:28:49.170Z,3.1
2022-11-25T11:31:45.192Z,3.1
2022-11-25T11:34:36.645Z,3.1
2022-11-25T11:37:37.399Z,3.1
2022-11-25T11:40:28.805Z,3.1
2022-11-25T11:43:23.024Z,3.2
2022-11-25T11:46:24.066Z,3.2
2022-11-25T11:49:24.011Z,3.3
2022-11-25T11:52:36.556Z,3.3
2022-11-25T11:55:35.353Z,3.4
2022-11-25T11:58:37.650Z,3.4
2022-11-25T12:01:37.436Z,3.5
2022-11-25T12:04:39.588Z,3.5
2022-11-25T12:07:31.559Z,3.5
2022-11-25T12:10:25.366Z,3.6
2022-11-25T12:13:17.458Z,3.6
2022-11-25T12:16:13.416Z,3.6
2022-11-25T12:19:06.786Z,3.6
2022-11-25T12:22:02.020Z,3.6
2022-11-25T12:24:56.370Z,3.7
2022-11-25T12:27:53.638Z,3.7
2022-11-25T12:30:48.530Z,3.7
2022-11-25T12:33:47.140Z,3.8
2022-11-25T12:36:44.800Z,3.7
2022-11-25T12:39:33.317Z,3.7
2022-11-25T12:42:26.007Z,3.7
2022-11-25T12:45:15.741Z,3.7
2022-11-25T12:48:07.613Z,3.7
2022-11-25T12:50:56.580Z,3.7
2022-11-25T12:53:54.686Z,3.8
2022-11-25T12:56:56.054Z,3.8
2022-11-25T13:00:33.274Z,3.8
2022-11-25T13:04:53.776Z,3.7
2022-11-25T13:08:15.570Z,3.7
2022-11-25T13:11:17.355Z,3.7
2022-11-25T13:14:26.258Z,3.7
2022-11-25T13:17:38.445Z,3.7
2022-11-25T13:20:28.732Z,3.7
2022-11-25T13:23:24.493Z,3.7
2022-11-25T13:26:14.749Z,3.7
2022-11-25T13:29:34.387Z,3.6
2022-11-25T13:32:45.834Z,3.6
2022-11-25T13:35:33.171Z,3.6
2022-11-25T13:38:22.916Z,3.6
2022-11-25T13:41:22.791Z,3.6
2022-11-25T13:44:22.851Z,3.6
2022-11-25T13:47:14.290Z,3.6
2022-11-25T13:50:22.295Z,3.6
2022-11-25T13:53:12.551Z,3.6
2022-11-25T13:56:11.462Z,3.6
2022-11-25T13:59:10.347Z,3.6
2022-11-25T14:02:21.256Z,3.6
2022-11-25T14:05:17.329Z,3.6
2022-11-25T14:08:45.608Z,3.6
2022-11-25T14:11:45.302Z,3.6
2022-11-25T14:14:50.122Z,3.5
2022-11-25T14:17:50.727Z,3.5
2022-11-25T14:21:19.771Z,3.5
2022-11-25T14:24:27.943Z,3.4
2022-11-25T14:27:22.669Z,3.4
2022-11-25T14:30:13.014Z,3.4
2022-11-25T14:33:01.822Z,3.4
2022-11-25T14:35:55.208Z,3.4
2022-11-25T14:38:50.432Z,3.3
2022-11-25T14:41:44.434Z,3.3
2022-11-25T14:44:40.414Z,3.3
2022-11-25T14:47:36.020Z,3.3
2022-11-25T14:50:34.702Z,3.3
2022-11-25T14:53:23.606Z,3.3
2022-11-25T14:56:12.330Z,3.3
2022-11-25T14:59:02.141Z,3.3
2022-11-25T15:01:53.540Z,3.3
2022-11-25T15:04:41.719Z,3.3
2022-11-25T15:07:31.409Z,3.3
2022-11-25T15:10:19.962Z,3.3
2022-11-25T15:13:20.003Z,3.3
2022-11-25T15:16:15.380Z,3.3
2022-11-25T15:19:06.154Z,3.3
2022-11-25T15:22:23.055Z,3.3
2022-11-25T15:25:12.719Z,3.2
2022-11-25T15:28:01.091Z,3.2
2022-11-25T15:31:00.337Z,3.2
2022-11-25T15:33:54.853Z,3.3
2022-11-25T15:36:48.553Z,3.2
2022-11-25T15:39:40.236Z,3.2
2022-11-25T15:42:27.865Z,3.2
2022-11-25T15:45:17.698Z,3.2
2022-11-25T15:48:06.762Z,3.2
2022-11-25T15:51:00.374Z,3.3
2022-11-25T15:53:51.118Z,3.2
2022-11-25T15:56:41.484Z,3.3
2022-11-25T15:59:33.508Z,3.3
2022-11-25T16:02:25.403Z,3.3
2022-11-25T16:05:19.505Z,3.2
2022-11-25T16:08:16.375Z,3.3
2022-11-25T16:11:16.289Z,3.2
2022-11-25T16:14:04.641Z,3.3
2022-11-25T16:17:04.672Z,3.3
2022-11-25T16:19:57.507Z,3.3
2022-11-25T16:22:46.601Z,3.3
2022-11-25T16:25:34.128Z,3.3
2022-11-25T16:28:23.480Z,3.3
2022-11-25T16:31:11.011Z,3.3
2022-11-25T16:34:02.046Z,3.3
2022-11-25T16:36:59.107Z,3.3
2022-11-25T16:39:47.443Z,3.3
2022-11-25T16:42:35.064Z,3.3
2022-11-25T16:45:23.299Z,3.3
2022-11-25T16:48:12.884Z,3.3
2022-11-25T16:51:01.889Z,3.2
2022-11-25T16:53:54.029Z,3.2
2022-11-25T16:56:41.524Z,3.2
2022-11-25T16:59:29.517Z,3.2
2022-11-25T17:02:19.799Z,3.2
2022-11-25T17:05:08.046Z,3.3
2022-11-25T17:08:02.190Z,3.3
2022-11-25T17:10:50.004Z,3.3
2022-11-25T17:13:41.191Z,3.3
2022-11-25T17:16:34.991Z,3.3
2022-11-25T17:19:23.012Z,3.3
2022-11-25T17:22:10.591Z,3.3
2022-11-25T17:25:02.758Z,3.3
2022-11-25T17:27:50.769Z,3.3
2022-11-25T17:30:39.920Z,3.3
2022-11-25T17:33:28.626Z,3.3
2022-11-25T17:36:16.475Z,3.3
2022-11-25T17:39:04.407Z,3.2
2022-11-25T17:41:51.974Z,3.2
2022-11-25T17:44:39.648Z,3.2
2022-11-25T17:47:28.720Z,3.2
2022-11-25T17:50:16.167Z,3.2
2022-11-25T17:53:06.664Z,3.2
2022-11-25T17:55:54.635Z,3.2
2022-11-25T17:58:41.940Z,3.2
2022-11-25T18:01:29.555Z,3.2
2022-11-25T18:04:17.270Z,3.2
2022-11-25T18:07:08.181Z,3.2
2022-11-25T18:09:55.752Z,3.2
2022-11-25T18:12:43.293Z,3.2
2022-11-25T18:15:33.003Z,3.2
2022-11-25T18:18:20.623Z,3.2
2022-11-25T18:21:10.107Z,3.1
2022-11-25T18:23:58.054Z,2.8
2022-11-25T18:26:46.412Z,3.1
2022-11-25T18:29:37.671Z,3.1
2022-11-25T18:32:25.489Z,3.1
2022-11-25T18:35:13.183Z,3.1
2022-11-25T18:38:03.252Z,3
2022-11-25T18:40:53.850Z,3
2022-11-25T18:43:42.071Z,3
2022-11-25T18:46:29.502Z,3
2022-11-25T18:49:20.851Z,3
2022-11-25T18:52:08.490Z,3
2022-11-25T18:54:55.909Z,3
2022-11-25T18:57:43.632Z,3
2022-11-25T19:00:34.133Z,3
2022-11-25T19:03:21.640Z,3
2022-11-25T19:06:10.912Z,3
2022-11-25T19:09:00.079Z,3
2022-11-25T19:11:48.572Z,3
2022-11-25T19:14:39.740Z,3
2022-11-25T19:17:27.683Z,3
2022-11-25T19:20:14.979Z,3
2022-11-25T19:23:05.154Z,3.1
2022-11-25T19:26:02.358Z,3.1
2022-11-25T19:28:56.565Z,3.1
2022-11-25T19:31:49.477Z,3.1
2022-11-25T19:34:38.732Z,3.1
2022-11-25T19:37:31.331Z,3.1
2022-11-25T19:40:19.017Z,3.1
2022-11-25T19:43:07.063Z,3.1
2022-11-25T19:45:54.523Z,3.1
2022-11-25T19:48:43.390Z,3.1
2022-11-25T19:51:30.754Z,3.1
2022-11-25T19:54:19.762Z,3.1
2022-11-25T19:57:07.093Z,3.2
2022-11-25T20:00:00.688Z,3.1
2022-11-25T20:02:49.592Z,3.2
2022-11-25T20:05:39.762Z,3.2
2022-11-25T20:08:27.863Z,3.2
2022-11-25T20:11:15.379Z,3.2
2022-11-25T20:14:04.198Z,3.2
2022-11-25T20:16:51.954Z,3.2
2022-11-25T20:19:39.357Z,3.2
2022-11-25T20:22:27.376Z,3.3
2022-11-25T20:25:19.467Z,3.3
2022-11-25T20:28:07.406Z,3.3
2022-11-25T20:31:01.534Z,3.2
2022-11-25T20:33:48.890Z,3.3
2022-11-25T20:36:36.399Z,3.3
2022-11-25T20:39:26.980Z,3.2
2022-11-25T20:42:14.753Z,3.2
2022-11-25T20:45:02.265Z,3.2
2022-11-25T20:47:54.711Z,3.2
2022-11-25T20:50:43.545Z,3.2
2022-11-25T20:53:31.479Z,3.2
2022-11-25T20:56:19.947Z,3.2
2022-11-25T20:59:09.650Z,3.2
2022-11-25T21:02:05.194Z,3.2
2022-11-25T21:04:52.711Z,3.2
2022-11-25T21:07:40.113Z,3.3
2022-11-25T21:10:28.737Z,3.3
2022-11-25T21:13:19.405Z,3.3
2022-11-25T21:16:08.748Z,3.3
2022-11-25T21:18:56.220Z,3.3
2022-11-25T21:21:44.097Z,3.3
2022-11-25T21:24:33.379Z,3.3
2022-11-25T21:27:24.557Z,3.3
2022-11-25T21:30:11.886Z,3.3
2022-11-25T21:33:03.857Z,3.3
2022-11-25T21:35:54.572Z,3.3
2022-11-25T21:38:41.962Z,3.3
2022-11-25T21:41:29.983Z,3.3
2022-11-25T21:44:17.715Z,3.4
2022-11-25T21:47:13.720Z,3.4
2022-11-25T21:50:03.443Z,3.4
2022-11-25T21:52:58.672Z,3.4
2022-11-25T21:55:47.161Z,3.4
2022-11-25T21:58:34.788Z,3.4
2022-11-25T22:01:23.993Z,3.4
2022-11-25T22:04:11.630Z,3.4
2022-11-25T22:07:01.140Z,3.4
2022-11-25T22:09:48.465Z,3.4
2022-11-25T22:12:40.997Z,3.4
2022-11-25T22:15:31.524Z,3.4
2022-11-25T22:18:19.973Z,3.4
2022-11-25T22:21:13.558Z,3.3
2022-11-25T22:24:01.201Z,3.3
2022-11-25T22:26:58.555Z,3.3
2022-11-25T22:29:48.035Z,3.4
2022-11-25T22:32:36.752Z,3.4
2022-11-25T22:35:24.287Z,3.3
2022-11-25T22:38:12.431Z,3.3
2022-11-25T22:41:01.708Z,3.4
2022-11-25T22:43:49.798Z,3.3
2022-11-25T22:46:38.168Z,3.3
2022-11-25T22:49:25.569Z,3.3
2022-11-25T22:52:18.650Z,3.4
2022-11-25T22:55:13.665Z,3.4
2022-11-25T22:58:04.928Z,3.4
2022-11-25T23:00:52.308Z,3.3
2022-11-25T23:03:41.195Z,3.3
2022-11-25T23:06:29.586Z,3.3
2022-11-25T23:09:17.073Z,3.3
2022-11-25T23:12:05.190Z,3.3
2022-11-25T23:14:57.640Z,3.3
2022-11-25T23:17:45.990Z,3.3
2022-11-25T23:20:35.105Z,3.3
2022-11-25T23:23:24.616Z,3.4
2022-11-25T23:26:13.944Z,3.4
2022-11-25T23:29:01.387Z,3.4
2022-11-25T23:31:48.876Z,3.4
2022-11-25T23:34:36.554Z,3.3
2022-11-25T23:37:24.067Z,3.4
2022-11-25T23:40:11.416Z,3.3
2022-11-25T23:43:04.092Z,3.3
2022-11-25T23:45:57.265Z,3.3
2022-11-25T23:48:46.182Z,3.3
2022-11-25T23:51:39.295Z,3.3
2022-11-25T23:54:26.816Z,3.3
2022-11-25T23:57:24.607Z,3.3
